sensor_id;sensor_type;location;lat;lon;timestamp;P1;durP1;ratioP1;P2;durP2;ratioP2
9481;SDS011;4779;48.062;11.672;2023-07-13T00:01:51;2.22;;;2.10;;
9481;SDS011;4779;48.062;11.672;2023-07-13T00:04:18;2.92;;;2.40;;
9481;SDS011;4779;48.062;11.672;2023-07-13T00:06:51;3.40;;;2.75;;
9481;SDS011;4779;48.062;11.672;2023-07-13T00:09:19;2.63;;;2.30;;
9481;SDS011;4779;48.062;11.672;2023-07-13T00:11:49;2.53;;;2.30;;
9481;SDS011;4779;48.062;11.672;2023-07-13T00:14:17;3.45;;;2.65;;
9481;SDS011;4779;48.062;11.672;2023-07-13T00:16:44;2.17;;;2.05;;
9481;SDS011;4779;48.062;11.672;2023-07-13T00:19:12;2.80;;;2.17;;
9481;SDS011;4779;48.062;11.672;2023-07-13T00:21:39;2.63;;;2.30;;
9481;SDS011;4779;48.062;11.672;2023-07-13T00:24:10;2.97;;;2.60;;
9481;SDS011;4779;48.062;11.672;2023-07-13T00:26:47;2.10;;;1.90;;
9481;SDS011;4779;48.062;11.672;2023-07-13T00:29:14;2.17;;;2.03;;
9481;SDS011;4779;48.062;11.672;2023-07-13T00:31:41;3.80;;;2.33;;
9481;SDS011;4779;48.062;11.672;2023-07-13T00:34:09;2.70;;;2.17;;
9481;SDS011;4779;48.062;11.672;2023-07-13T00:36:36;3.97;;;2.55;;
9481;SDS011;4779;48.062;11.672;2023-07-13T00:39:03;2.40;;;2.20;;
9481;SDS011;4779;48.062;11.672;2023-07-13T00:41:32;2.80;;;2.15;;
9481;SDS011;4779;48.062;11.672;2023-07-13T00:43:58;2.50;;;2.30;;
9481;SDS011;4779;48.062;11.672;2023-07-13T00:46:26;2.20;;;2.10;;
9481;SDS011;4779;48.062;11.672;2023-07-13T00:48:54;2.53;;;2.33;;
9481;SDS011;4779;48.062;11.672;2023-07-13T00:51:27;3.10;;;2.40;;
9481;SDS011;4779;48.062;11.672;2023-07-13T00:53:59;3.13;;;2.25;;
9481;SDS011;4779;48.062;11.672;2023-07-13T00:56:29;2.22;;;2.03;;
9481;SDS011;4779;48.062;11.672;2023-07-13T00:58:59;3.42;;;1.90;;
9481;SDS011;4779;48.062;11.672;2023-07-13T01:01:28;3.55;;;2.60;;
9481;SDS011;4779;48.062;11.672;2023-07-13T01:03:54;2.85;;;2.17;;
9481;SDS011;4779;48.062;11.672;2023-07-13T01:06:22;2.88;;;1.95;;
9481;SDS011;4779;48.062;11.672;2023-07-13T01:08:49;3.67;;;2.25;;
9481;SDS011;4779;48.062;11.672;2023-07-13T01:11:18;2.47;;;1.85;;
9481;SDS011;4779;48.062;11.672;2023-07-13T01:13:47;3.08;;;2.08;;
9481;SDS011;4779;48.062;11.672;2023-07-13T01:16:15;2.28;;;2.00;;
9481;SDS011;4779;48.062;11.672;2023-07-13T01:18:48;3.17;;;2.03;;
9481;SDS011;4779;48.062;11.672;2023-07-13T01:21:16;2.13;;;1.90;;
9481;SDS011;4779;48.062;11.672;2023-07-13T01:23:44;2.67;;;2.47;;
9481;SDS011;4779;48.062;11.672;2023-07-13T01:26:11;2.65;;;1.85;;
9481;SDS011;4779;48.062;11.672;2023-07-13T01:28:38;4.30;;;2.05;;
9481;SDS011;4779;48.062;11.672;2023-07-13T01:31:05;2.40;;;2.20;;
9481;SDS011;4779;48.062;11.672;2023-07-13T01:33:33;2.28;;;1.85;;
9481;SDS011;4779;48.062;11.672;2023-07-13T01:36:03;2.15;;;1.90;;
9481;SDS011;4779;48.062;11.672;2023-07-13T01:38:31;2.20;;;2.00;;
9481;SDS011;4779;48.062;11.672;2023-07-13T01:40:59;3.17;;;2.30;;
9481;SDS011;4779;48.062;11.672;2023-07-13T01:43:26;2.53;;;2.28;;
9481;SDS011;4779;48.062;11.672;2023-07-13T01:45:53;2.30;;;2.10;;
9481;SDS011;4779;48.062;11.672;2023-07-13T01:48:20;2.30;;;2.10;;
9481;SDS011;4779;48.062;11.672;2023-07-13T01:50:47;2.60;;;2.40;;
9481;SDS011;4779;48.062;11.672;2023-07-13T01:53:14;2.90;;;2.63;;
9481;SDS011;4779;48.062;11.672;2023-07-13T01:55:42;3.22;;;2.42;;
9481;SDS011;4779;48.062;11.672;2023-07-13T01:58:09;2.83;;;2.50;;
9481;SDS011;4779;48.062;11.672;2023-07-13T02:00:36;4.45;;;2.45;;
9481;SDS011;4779;48.062;11.672;2023-07-13T02:03:03;3.10;;;2.40;;
9481;SDS011;4779;48.062;11.672;2023-07-13T02:05:30;2.75;;;2.50;;
9481;SDS011;4779;48.062;11.672;2023-07-13T02:07:57;2.45;;;2.20;;
9481;SDS011;4779;48.062;11.672;2023-07-13T02:10:24;2.40;;;2.10;;
9481;SDS011;4779;48.062;11.672;2023-07-13T02:12:52;3.13;;;2.20;;
9481;SDS011;4779;48.062;11.672;2023-07-13T02:15:19;3.13;;;2.40;;
9481;SDS011;4779;48.062;11.672;2023-07-13T02:17:46;3.90;;;2.40;;
9481;SDS011;4779;48.062;11.672;2023-07-13T02:20:13;2.40;;;2.10;;
9481;SDS011;4779;48.062;11.672;2023-07-13T02:22:40;2.30;;;2.10;;
9481;SDS011;4779;48.062;11.672;2023-07-13T02:25:07;3.03;;;2.40;;
9481;SDS011;4779;48.062;11.672;2023-07-13T02:27:34;2.78;;;2.20;;
9481;SDS011;4779;48.062;11.672;2023-07-13T02:30:02;3.75;;;2.60;;
9481;SDS011;4779;48.062;11.672;2023-07-13T02:32:30;3.60;;;2.47;;
9481;SDS011;4779;48.062;11.672;2023-07-13T02:34:57;2.35;;;2.15;;
9481;SDS011;4779;48.062;11.672;2023-07-13T02:37:23;3.13;;;2.55;;
9481;SDS011;4779;48.062;11.672;2023-07-13T02:39:50;4.57;;;2.10;;
9481;SDS011;4779;48.062;11.672;2023-07-13T02:42:17;3.47;;;2.38;;
9481;SDS011;4779;48.062;11.672;2023-07-13T02:44:44;4.10;;;2.40;;
9481;SDS011;4779;48.062;11.672;2023-07-13T02:47:12;5.75;;;2.83;;
9481;SDS011;4779;48.062;11.672;2023-07-13T02:49:39;3.47;;;2.60;;
9481;SDS011;4779;48.062;11.672;2023-07-13T02:52:06;4.05;;;2.60;;
9481;SDS011;4779;48.062;11.672;2023-07-13T02:54:33;4.95;;;2.95;;
9481;SDS011;4779;48.062;11.672;2023-07-13T02:57:00;4.55;;;3.13;;
9481;SDS011;4779;48.062;11.672;2023-07-13T02:59:27;3.83;;;2.83;;
9481;SDS011;4779;48.062;11.672;2023-07-13T03:01:54;4.80;;;2.80;;
9481;SDS011;4779;48.062;11.672;2023-07-13T03:04:22;3.72;;;2.70;;
9481;SDS011;4779;48.062;11.672;2023-07-13T03:06:49;3.28;;;2.83;;
9481;SDS011;4779;48.062;11.672;2023-07-13T03:09:16;3.95;;;3.20;;
9481;SDS011;4779;48.062;11.672;2023-07-13T03:11:43;3.95;;;2.92;;
9481;SDS011;4779;48.062;11.672;2023-07-13T03:14:10;4.75;;;3.15;;
9481;SDS011;4779;48.062;11.672;2023-07-13T03:16:37;3.95;;;3.55;;
9481;SDS011;4779;48.062;11.672;2023-07-13T03:19:03;4.20;;;3.45;;
9481;SDS011;4779;48.062;11.672;2023-07-13T03:21:32;3.90;;;3.42;;
9481;SDS011;4779;48.062;11.672;2023-07-13T03:23:59;3.95;;;3.22;;
9481;SDS011;4779;48.062;11.672;2023-07-13T03:26:25;3.55;;;3.00;;
9481;SDS011;4779;48.062;11.672;2023-07-13T03:28:52;4.03;;;3.00;;
9481;SDS011;4779;48.062;11.672;2023-07-13T03:31:20;4.68;;;3.05;;
9481;SDS011;4779;48.062;11.672;2023-07-13T03:33:51;3.35;;;2.88;;
9481;SDS011;4779;48.062;11.672;2023-07-13T03:36:18;4.40;;;2.83;;
9481;SDS011;4779;48.062;11.672;2023-07-13T03:38:48;5.95;;;3.17;;
9481;SDS011;4779;48.062;11.672;2023-07-13T03:41:17;3.58;;;3.10;;
9481;SDS011;4779;48.062;11.672;2023-07-13T03:43:44;4.57;;;2.80;;
9481;SDS011;4779;48.062;11.672;2023-07-13T03:46:12;3.30;;;3.00;;
9481;SDS011;4779;48.062;11.672;2023-07-13T03:48:39;4.00;;;3.17;;
9481;SDS011;4779;48.062;11.672;2023-07-13T03:51:08;3.80;;;3.28;;
9481;SDS011;4779;48.062;11.672;2023-07-13T03:53:37;4.53;;;2.97;;
9481;SDS011;4779;48.062;11.672;2023-07-13T03:56:07;4.43;;;2.95;;
9481;SDS011;4779;48.062;11.672;2023-07-13T03:58:35;3.63;;;2.67;;
9481;SDS011;4779;48.062;11.672;2023-07-13T04:01:03;2.90;;;2.60;;
9481;SDS011;4779;48.062;11.672;2023-07-13T04:03:32;4.65;;;3.10;;
9481;SDS011;4779;48.062;11.672;2023-07-13T04:06:00;4.13;;;2.83;;
9481;SDS011;4779;48.062;11.672;2023-07-13T04:08:28;4.15;;;2.67;;
9481;SDS011;4779;48.062;11.672;2023-07-13T04:10:56;3.40;;;2.40;;
9481;SDS011;4779;48.062;11.672;2023-07-13T04:13:25;2.38;;;2.17;;
9481;SDS011;4779;48.062;11.672;2023-07-13T04:15:52;4.22;;;3.20;;
9481;SDS011;4779;48.062;11.672;2023-07-13T04:18:20;2.78;;;2.40;;
9481;SDS011;4779;48.062;11.672;2023-07-13T04:20:47;4.28;;;3.10;;
9481;SDS011;4779;48.062;11.672;2023-07-13T04:23:15;3.55;;;2.88;;
9481;SDS011;4779;48.062;11.672;2023-07-13T04:25:43;3.85;;;2.60;;
9481;SDS011;4779;48.062;11.672;2023-07-13T04:28:10;4.05;;;2.83;;
9481;SDS011;4779;48.062;11.672;2023-07-13T04:30:39;5.85;;;2.80;;
9481;SDS011;4779;48.062;11.672;2023-07-13T04:33:06;4.25;;;2.75;;
9481;SDS011;4779;48.062;11.672;2023-07-13T04:35:33;2.92;;;2.58;;
9481;SDS011;4779;48.062;11.672;2023-07-13T04:38:00;3.05;;;2.45;;
9481;SDS011;4779;48.062;11.672;2023-07-13T04:40:28;3.45;;;2.63;;
9481;SDS011;4779;48.062;11.672;2023-07-13T04:42:55;3.28;;;2.88;;
9481;SDS011;4779;48.062;11.672;2023-07-13T04:45:24;2.47;;;2.25;;
9481;SDS011;4779;48.062;11.672;2023-07-13T04:47:52;2.60;;;2.40;;
9481;SDS011;4779;48.062;11.672;2023-07-13T04:50:19;3.53;;;2.50;;
9481;SDS011;4779;48.062;11.672;2023-07-13T04:52:48;3.05;;;2.10;;
9481;SDS011;4779;48.062;11.672;2023-07-13T04:55:15;2.63;;;2.42;;
9481;SDS011;4779;48.062;11.672;2023-07-13T04:57:42;2.50;;;2.30;;
9481;SDS011;4779;48.062;11.672;2023-07-13T05:00:10;4.68;;;2.70;;
9481;SDS011;4779;48.062;11.672;2023-07-13T05:02:38;2.40;;;2.20;;
9481;SDS011;4779;48.062;11.672;2023-07-13T05:05:07;3.15;;;2.30;;
9481;SDS011;4779;48.062;11.672;2023-07-13T05:07:34;3.83;;;2.10;;
9481;SDS011;4779;48.062;11.672;2023-07-13T05:10:01;2.55;;;2.20;;
9481;SDS011;4779;48.062;11.672;2023-07-13T05:12:29;2.67;;;2.20;;
9481;SDS011;4779;48.062;11.672;2023-07-13T05:14:56;3.63;;;2.15;;
9481;SDS011;4779;48.062;11.672;2023-07-13T05:17:24;2.95;;;2.50;;
9481;SDS011;4779;48.062;11.672;2023-07-13T05:19:51;2.58;;;2.33;;
9481;SDS011;4779;48.062;11.672;2023-07-13T05:22:20;3.53;;;2.47;;
9481;SDS011;4779;48.062;11.672;2023-07-13T05:24:46;2.78;;;1.80;;
9481;SDS011;4779;48.062;11.672;2023-07-13T05:27:13;2.40;;;2.20;;
9481;SDS011;4779;48.062;11.672;2023-07-13T05:29:40;3.55;;;2.42;;
9481;SDS011;4779;48.062;11.672;2023-07-13T05:32:07;2.40;;;2.20;;
9481;SDS011;4779;48.062;11.672;2023-07-13T05:34:34;2.58;;;2.38;;
9481;SDS011;4779;48.062;11.672;2023-07-13T05:37:01;3.03;;;2.22;;
9481;SDS011;4779;48.062;11.672;2023-07-13T05:39:29;2.50;;;2.28;;
9481;SDS011;4779;48.062;11.672;2023-07-13T05:41:56;3.20;;;2.40;;
9481;SDS011;4779;48.062;11.672;2023-07-13T05:44:23;3.22;;;2.40;;
9481;SDS011;4779;48.062;11.672;2023-07-13T05:46:50;2.97;;;2.50;;
9481;SDS011;4779;48.062;11.672;2023-07-13T05:49:17;4.95;;;2.63;;
9481;SDS011;4779;48.062;11.672;2023-07-13T05:51:44;2.38;;;2.17;;
9481;SDS011;4779;48.062;11.672;2023-07-13T05:54:10;4.13;;;2.70;;
9481;SDS011;4779;48.062;11.672;2023-07-13T05:56:39;3.42;;;2.67;;
9481;SDS011;4779;48.062;11.672;2023-07-13T05:59:06;2.97;;;2.30;;
9481;SDS011;4779;48.062;11.672;2023-07-13T06:01:32;3.45;;;2.70;;
9481;SDS011;4779;48.062;11.672;2023-07-13T06:03:59;3.97;;;2.50;;
9481;SDS011;4779;48.062;11.672;2023-07-13T06:06:26;3.00;;;2.38;;
9481;SDS011;4779;48.062;11.672;2023-07-13T06:08:54;3.58;;;2.40;;
9481;SDS011;4779;48.062;11.672;2023-07-13T06:11:21;2.58;;;2.20;;
9481;SDS011;4779;48.062;11.672;2023-07-13T06:13:51;3.88;;;2.35;;
9481;SDS011;4779;48.062;11.672;2023-07-13T06:16:19;2.63;;;2.42;;
9481;SDS011;4779;48.062;11.672;2023-07-13T06:18:46;3.78;;;2.60;;
9481;SDS011;4779;48.062;11.672;2023-07-13T06:21:14;3.50;;;2.50;;
9481;SDS011;4779;48.062;11.672;2023-07-13T06:23:43;2.42;;;2.22;;
9481;SDS011;4779;48.062;11.672;2023-07-13T06:26:10;5.85;;;3.08;;
9481;SDS011;4779;48.062;11.672;2023-07-13T06:28:37;3.80;;;2.60;;
9481;SDS011;4779;48.062;11.672;2023-07-13T06:31:07;3.85;;;2.60;;
9481;SDS011;4779;48.062;11.672;2023-07-13T06:33:35;2.78;;;2.50;;
9481;SDS011;4779;48.062;11.672;2023-07-13T06:36:02;2.83;;;2.53;;
9481;SDS011;4779;48.062;11.672;2023-07-13T06:38:30;2.97;;;2.70;;
9481;SDS011;4779;48.062;11.672;2023-07-13T06:40:57;3.17;;;2.65;;
9481;SDS011;4779;48.062;11.672;2023-07-13T06:43:24;3.03;;;2.42;;
9481;SDS011;4779;48.062;11.672;2023-07-13T06:45:54;4.95;;;2.60;;
9481;SDS011;4779;48.062;11.672;2023-07-13T06:48:23;3.47;;;2.83;;
9481;SDS011;4779;48.062;11.672;2023-07-13T06:50:50;5.63;;;2.70;;
9481;SDS011;4779;48.062;11.672;2023-07-13T06:53:18;5.13;;;2.83;;
9481;SDS011;4779;48.062;11.672;2023-07-13T06:55:46;3.00;;;2.40;;
9481;SDS011;4779;48.062;11.672;2023-07-13T06:58:14;3.55;;;2.45;;
9481;SDS011;4779;48.062;11.672;2023-07-13T07:00:42;4.15;;;2.63;;
9481;SDS011;4779;48.062;11.672;2023-07-13T07:03:08;4.32;;;2.78;;
9481;SDS011;4779;48.062;11.672;2023-07-13T07:05:37;3.85;;;2.65;;
9481;SDS011;4779;48.062;11.672;2023-07-13T07:08:04;3.10;;;2.65;;
9481;SDS011;4779;48.062;11.672;2023-07-13T07:10:31;4.15;;;2.90;;
9481;SDS011;4779;48.062;11.672;2023-07-13T07:12:58;2.75;;;2.55;;
9481;SDS011;4779;48.062;11.672;2023-07-13T07:15:25;3.53;;;2.58;;
9481;SDS011;4779;48.062;11.672;2023-07-13T07:17:53;2.35;;;1.90;;
9481;SDS011;4779;48.062;11.672;2023-07-13T07:20:20;4.20;;;2.47;;
9481;SDS011;4779;48.062;11.672;2023-07-13T07:22:48;4.22;;;2.45;;
9481;SDS011;4779;48.062;11.672;2023-07-13T07:25:15;3.35;;;2.40;;
9481;SDS011;4779;48.062;11.672;2023-07-13T07:27:42;4.00;;;2.55;;
9481;SDS011;4779;48.062;11.672;2023-07-13T07:30:10;2.53;;;2.33;;
9481;SDS011;4779;48.062;11.672;2023-07-13T07:32:37;4.18;;;2.60;;
9481;SDS011;4779;48.062;11.672;2023-07-13T07:35:04;6.13;;;2.67;;
9481;SDS011;4779;48.062;11.672;2023-07-13T07:37:32;4.55;;;2.80;;
9481;SDS011;4779;48.062;11.672;2023-07-13T07:40:00;3.03;;;2.60;;
9481;SDS011;4779;48.062;11.672;2023-07-13T07:42:28;4.55;;;2.58;;
9481;SDS011;4779;48.062;11.672;2023-07-13T07:44:54;3.13;;;2.83;;
9481;SDS011;4779;48.062;11.672;2023-07-13T07:47:21;3.45;;;2.80;;
9481;SDS011;4779;48.062;11.672;2023-07-13T07:49:49;3.50;;;2.75;;
9481;SDS011;4779;48.062;11.672;2023-07-13T07:52:16;4.10;;;2.80;;
9481;SDS011;4779;48.062;11.672;2023-07-13T07:54:43;4.03;;;2.28;;
9481;SDS011;4779;48.062;11.672;2023-07-13T07:57:11;4.05;;;2.70;;
9481;SDS011;4779;48.062;11.672;2023-07-13T07:59:38;2.63;;;2.40;;
9481;SDS011;4779;48.062;11.672;2023-07-13T08:02:05;4.88;;;2.80;;
9481;SDS011;4779;48.062;11.672;2023-07-13T08:04:34;2.72;;;2.53;;
9481;SDS011;4779;48.062;11.672;2023-07-13T08:07:02;3.78;;;2.65;;
9481;SDS011;4779;48.062;11.672;2023-07-13T08:09:29;3.38;;;2.45;;
9481;SDS011;4779;48.062;11.672;2023-07-13T08:11:55;5.07;;;2.30;;
9481;SDS011;4779;48.062;11.672;2023-07-13T08:14:24;3.17;;;2.55;;
9481;SDS011;4779;48.062;11.672;2023-07-13T08:16:51;3.75;;;2.40;;
9481;SDS011;4779;48.062;11.672;2023-07-13T08:19:18;3.30;;;2.50;;
9481;SDS011;4779;48.062;11.672;2023-07-13T08:21:45;5.63;;;2.75;;
9481;SDS011;4779;48.062;11.672;2023-07-13T08:24:13;4.28;;;2.63;;
9481;SDS011;4779;48.062;11.672;2023-07-13T08:26:40;3.10;;;2.08;;
9481;SDS011;4779;48.062;11.672;2023-07-13T08:29:07;3.33;;;2.25;;
9481;SDS011;4779;48.062;11.672;2023-07-13T08:31:35;3.00;;;2.55;;
9481;SDS011;4779;48.062;11.672;2023-07-13T08:34:02;5.95;;;2.63;;
9481;SDS011;4779;48.062;11.672;2023-07-13T08:36:29;4.82;;;2.80;;
9481;SDS011;4779;48.062;11.672;2023-07-13T08:38:56;3.58;;;2.72;;
9481;SDS011;4779;48.062;11.672;2023-07-13T08:41:23;3.50;;;3.17;;
9481;SDS011;4779;48.062;11.672;2023-07-13T08:43:51;4.07;;;2.40;;
9481;SDS011;4779;48.062;11.672;2023-07-13T08:46:26;3.08;;;2.55;;
9481;SDS011;4779;48.062;11.672;2023-07-13T08:48:59;4.53;;;3.15;;
9481;SDS011;4779;48.062;11.672;2023-07-13T08:51:31;2.92;;;2.58;;
9481;SDS011;4779;48.062;11.672;2023-07-13T08:54:05;4.68;;;2.78;;
9481;SDS011;4779;48.062;11.672;2023-07-13T08:56:42;3.80;;;2.20;;
9481;SDS011;4779;48.062;11.672;2023-07-13T08:59:13;5.35;;;2.70;;
9481;SDS011;4779;48.062;11.672;2023-07-13T09:01:56;4.90;;;3.10;;
9481;SDS011;4779;48.062;11.672;2023-07-13T09:04:45;4.65;;;2.70;;
9481;SDS011;4779;48.062;11.672;2023-07-13T09:07:18;5.43;;;2.90;;
9481;SDS011;4779;48.062;11.672;2023-07-13T09:09:55;3.95;;;2.72;;
9481;SDS011;4779;48.062;11.672;2023-07-13T09:12:31;4.57;;;2.80;;
9481;SDS011;4779;48.062;11.672;2023-07-13T09:15:11;3.42;;;2.53;;
9481;SDS011;4779;48.062;11.672;2023-07-13T09:17:48;2.92;;;2.50;;
9481;SDS011;4779;48.062;11.672;2023-07-13T09:20:19;3.90;;;2.38;;
9481;SDS011;4779;48.062;11.672;2023-07-13T09:22:51;4.13;;;2.83;;
9481;SDS011;4779;48.062;11.672;2023-07-13T09:25:22;4.50;;;2.95;;
9481;SDS011;4779;48.062;11.672;2023-07-13T09:27:53;3.42;;;2.50;;
9481;SDS011;4779;48.062;11.672;2023-07-13T09:30:24;5.85;;;2.67;;
9481;SDS011;4779;48.062;11.672;2023-07-13T09:32:59;2.78;;;2.05;;
9481;SDS011;4779;48.062;11.672;2023-07-13T09:35:28;2.95;;;2.60;;
9481;SDS011;4779;48.062;11.672;2023-07-13T09:37:59;4.03;;;2.47;;
9481;SDS011;4779;48.062;11.672;2023-07-13T09:40:34;4.22;;;2.50;;
9481;SDS011;4779;48.062;11.672;2023-07-13T09:43:07;4.28;;;2.63;;
9481;SDS011;4779;48.062;11.672;2023-07-13T09:45:37;4.70;;;2.38;;
9481;SDS011;4779;48.062;11.672;2023-07-13T09:48:05;4.68;;;2.38;;
9481;SDS011;4779;48.062;11.672;2023-07-13T09:50:34;5.28;;;2.42;;
9481;SDS011;4779;48.062;11.672;2023-07-13T09:53:02;4.35;;;2.50;;
9481;SDS011;4779;48.062;11.672;2023-07-13T09:55:30;3.35;;;2.30;;
9481;SDS011;4779;48.062;11.672;2023-07-13T09:58:02;3.55;;;2.33;;
9481;SDS011;4779;48.062;11.672;2023-07-13T10:00:31;2.33;;;1.98;;
9481;SDS011;4779;48.062;11.672;2023-07-13T10:02:59;2.70;;;2.50;;
9481;SDS011;4779;48.062;11.672;2023-07-13T10:05:33;4.50;;;1.88;;
9481;SDS011;4779;48.062;11.672;2023-07-13T10:08:04;3.33;;;2.70;;
9481;SDS011;4779;48.062;11.672;2023-07-13T10:10:32;2.72;;;2.08;;
9481;SDS011;4779;48.062;11.672;2023-07-13T10:13:00;2.90;;;2.08;;
9481;SDS011;4779;48.062;11.672;2023-07-13T10:15:29;4.25;;;2.40;;
9481;SDS011;4779;48.062;11.672;2023-07-13T10:17:57;2.70;;;2.25;;
9481;SDS011;4779;48.062;11.672;2023-07-13T10:20:25;2.58;;;2.13;;
9481;SDS011;4779;48.062;11.672;2023-07-13T10:22:56;2.83;;;2.20;;
9481;SDS011;4779;48.062;11.672;2023-07-13T10:25:26;3.45;;;1.92;;
9481;SDS011;4779;48.062;11.672;2023-07-13T10:27:58;4.40;;;2.50;;
9481;SDS011;4779;48.062;11.672;2023-07-13T10:30:32;3.45;;;2.25;;
9481;SDS011;4779;48.062;11.672;2023-07-13T10:33:08;3.05;;;1.98;;
9481;SDS011;4779;48.062;11.672;2023-07-13T10:35:38;3.95;;;2.03;;
9481;SDS011;4779;48.062;11.672;2023-07-13T10:38:11;4.68;;;2.35;;
9481;SDS011;4779;48.062;11.672;2023-07-13T10:40:41;5.40;;;2.15;;
9481;SDS011;4779;48.062;11.672;2023-07-13T10:43:12;3.88;;;1.90;;
9481;SDS011;4779;48.062;11.672;2023-07-13T10:45:45;2.47;;;2.00;;
9481;SDS011;4779;48.062;11.672;2023-07-13T10:48:15;2.88;;;1.70;;
9481;SDS011;4779;48.062;11.672;2023-07-13T10:50:44;3.03;;;2.10;;
9481;SDS011;4779;48.062;11.672;2023-07-13T10:53:19;3.33;;;2.10;;
9481;SDS011;4779;48.062;11.672;2023-07-13T10:55:55;6.68;;;1.90;;
9481;SDS011;4779;48.062;11.672;2023-07-13T10:58:28;3.17;;;1.70;;
9481;SDS011;4779;48.062;11.672;2023-07-13T11:01:02;6.57;;;1.90;;
9481;SDS011;4779;48.062;11.672;2023-07-13T11:03:33;2.45;;;1.42;;
9481;SDS011;4779;48.062;11.672;2023-07-13T11:06:07;2.70;;;1.60;;
9481;SDS011;4779;48.062;11.672;2023-07-13T11:08:39;4.43;;;1.73;;
9481;SDS011;4779;48.062;11.672;2023-07-13T11:11:32;4.75;;;1.77;;
9481;SDS011;4779;48.062;11.672;2023-07-13T11:14:01;4.45;;;2.05;;
9481;SDS011;4779;48.062;11.672;2023-07-13T11:16:36;5.60;;;2.30;;
9481;SDS011;4779;48.062;11.672;2023-07-13T11:19:24;2.80;;;1.60;;
9481;SDS011;4779;48.062;11.672;2023-07-13T11:28:06;3.13;;;1.80;;
9481;SDS011;4779;48.062;11.672;2023-07-13T11:30:48;2.78;;;1.55;;
9481;SDS011;4779;48.062;11.672;2023-07-13T11:33:27;3.75;;;1.98;;
9481;SDS011;4779;48.062;11.672;2023-07-13T11:35:59;2.53;;;1.58;;
9481;SDS011;4779;48.062;11.672;2023-07-13T11:38:31;3.40;;;1.77;;
9481;SDS011;4779;48.062;11.672;2023-07-13T11:41:03;2.63;;;1.70;;
9481;SDS011;4779;48.062;11.672;2023-07-13T11:43:32;3.35;;;1.80;;
9481;SDS011;4779;48.062;11.672;2023-07-13T11:46:12;3.15;;;2.00;;
9481;SDS011;4779;48.062;11.672;2023-07-13T11:48:40;2.22;;;1.58;;
9481;SDS011;4779;48.062;11.672;2023-07-13T11:51:07;3.53;;;1.77;;
9481;SDS011;4779;48.062;11.672;2023-07-13T11:53:44;3.75;;;1.80;;
9481;SDS011;4779;48.062;11.672;2023-07-13T11:56:14;3.80;;;1.98;;
9481;SDS011;4779;48.062;11.672;2023-07-13T11:58:41;3.55;;;1.80;;
9481;SDS011;4779;48.062;11.672;2023-07-13T12:01:10;2.25;;;1.90;;
9481;SDS011;4779;48.062;11.672;2023-07-13T12:03:44;2.58;;;1.65;;
9481;SDS011;4779;48.062;11.672;2023-07-13T12:06:21;2.33;;;1.60;;
9481;SDS011;4779;48.062;11.672;2023-07-13T12:08:55;1.73;;;1.25;;
9481;SDS011;4779;48.062;11.672;2023-07-13T12:11:24;4.25;;;1.77;;
9481;SDS011;4779;48.062;11.672;2023-07-13T12:13:51;3.35;;;1.63;;
9481;SDS011;4779;48.062;11.672;2023-07-13T12:16:22;1.85;;;1.23;;
9481;SDS011;4779;48.062;11.672;2023-07-13T12:18:53;2.00;;;1.45;;
9481;SDS011;4779;48.062;11.672;2023-07-13T12:21:21;2.22;;;1.35;;
9481;SDS011;4779;48.062;11.672;2023-07-13T12:23:57;2.22;;;1.27;;
9481;SDS011;4779;48.062;11.672;2023-07-13T12:26:28;4.13;;;1.50;;
9481;SDS011;4779;48.062;11.672;2023-07-13T12:28:57;1.85;;;1.63;;
9481;SDS011;4779;48.062;11.672;2023-07-13T12:31:30;2.55;;;1.23;;
9481;SDS011;4779;48.062;11.672;2023-07-13T12:34:01;4.20;;;1.60;;
9481;SDS011;4779;48.062;11.672;2023-07-13T12:36:31;3.20;;;1.50;;
9481;SDS011;4779;48.062;11.672;2023-07-13T12:39:00;2.72;;;1.60;;
9481;SDS011;4779;48.062;11.672;2023-07-13T12:41:32;4.65;;;1.50;;
9481;SDS011;4779;48.062;11.672;2023-07-13T12:44:00;5.03;;;1.50;;
9481;SDS011;4779;48.062;11.672;2023-07-13T12:46:27;4.07;;;1.50;;
9481;SDS011;4779;48.062;11.672;2023-07-13T12:48:54;3.17;;;1.40;;
9481;SDS011;4779;48.062;11.672;2023-07-13T12:51:24;2.70;;;1.70;;
9481;SDS011;4779;48.062;11.672;2023-07-13T12:53:56;3.38;;;1.58;;
9481;SDS011;4779;48.062;11.672;2023-07-13T12:56:25;3.47;;;1.25;;
9481;SDS011;4779;48.062;11.672;2023-07-13T12:58:57;2.45;;;1.38;;
9481;SDS011;4779;48.062;11.672;2023-07-13T13:01:26;3.03;;;1.33;;
9481;SDS011;4779;48.062;11.672;2023-07-13T13:03:53;4.75;;;1.67;;
9481;SDS011;4779;48.062;11.672;2023-07-13T13:06:22;1.73;;;1.10;;
9481;SDS011;4779;48.062;11.672;2023-07-13T13:08:52;2.58;;;1.50;;
9481;SDS011;4779;48.062;11.672;2023-07-13T13:11:21;2.05;;;1.60;;
9481;SDS011;4779;48.062;11.672;2023-07-13T13:13:49;2.80;;;1.40;;
9481;SDS011;4779;48.062;11.672;2023-07-13T13:16:19;2.20;;;1.40;;
9481;SDS011;4779;48.062;11.672;2023-07-13T13:18:48;2.38;;;1.38;;
9481;SDS011;4779;48.062;11.672;2023-07-13T13:21:16;1.92;;;1.60;;
9481;SDS011;4779;48.062;11.672;2023-07-13T13:23:44;1.63;;;1.50;;
9481;SDS011;4779;48.062;11.672;2023-07-13T13:26:11;2.28;;;1.80;;
9481;SDS011;4779;48.062;11.672;2023-07-13T13:28:40;2.92;;;1.50;;
9481;SDS011;4779;48.062;11.672;2023-07-13T13:31:09;4.93;;;1.75;;
9481;SDS011;4779;48.062;11.672;2023-07-13T13:33:39;4.57;;;2.00;;
9481;SDS011;4779;48.062;11.672;2023-07-13T13:36:12;2.55;;;1.45;;
9481;SDS011;4779;48.062;11.672;2023-07-13T13:38:42;2.53;;;1.50;;
9481;SDS011;4779;48.062;11.672;2023-07-13T13:41:09;2.95;;;1.65;;
9481;SDS011;4779;48.062;11.672;2023-07-13T13:43:38;3.10;;;1.60;;
9481;SDS011;4779;48.062;11.672;2023-07-13T13:46:11;3.92;;;1.83;;
9481;SDS011;4779;48.062;11.672;2023-07-13T13:48:43;2.05;;;1.52;;
9481;SDS011;4779;48.062;11.672;2023-07-13T13:51:14;2.35;;;1.65;;
9481;SDS011;4779;48.062;11.672;2023-07-13T13:53:42;3.72;;;1.35;;
9481;SDS011;4779;48.062;11.672;2023-07-13T13:56:10;2.67;;;1.50;;
9481;SDS011;4779;48.062;11.672;2023-07-13T13:58:38;2.33;;;1.77;;
9481;SDS011;4779;48.062;11.672;2023-07-13T14:01:08;5.10;;;1.80;;
9481;SDS011;4779;48.062;11.672;2023-07-13T14:03:39;5.88;;;1.88;;
9481;SDS011;4779;48.062;11.672;2023-07-13T14:06:09;1.98;;;1.35;;
9481;SDS011;4779;48.062;11.672;2023-07-13T14:08:38;3.20;;;1.60;;
9481;SDS011;4779;48.062;11.672;2023-07-13T14:11:05;3.60;;;1.75;;
9481;SDS011;4779;48.062;11.672;2023-07-13T14:13:36;1.80;;;1.63;;
9481;SDS011;4779;48.062;11.672;2023-07-13T14:16:09;2.38;;;1.50;;
9481;SDS011;4779;48.062;11.672;2023-07-13T14:18:38;2.38;;;1.70;;
9481;SDS011;4779;48.062;11.672;2023-07-13T14:21:10;1.75;;;1.50;;
9481;SDS011;4779;48.062;11.672;2023-07-13T14:23:39;3.53;;;1.88;;
9481;SDS011;4779;48.062;11.672;2023-07-13T14:26:10;2.83;;;1.65;;
9481;SDS011;4779;48.062;11.672;2023-07-13T14:28:39;4.55;;;1.75;;
9481;SDS011;4779;48.062;11.672;2023-07-13T14:31:09;3.20;;;1.80;;
9481;SDS011;4779;48.062;11.672;2023-07-13T14:33:36;3.03;;;1.67;;
9481;SDS011;4779;48.062;11.672;2023-07-13T14:36:03;3.58;;;1.60;;
9481;SDS011;4779;48.062;11.672;2023-07-13T14:38:48;2.67;;;1.55;;
9481;SDS011;4779;48.062;11.672;2023-07-13T14:41:15;4.68;;;2.08;;
9481;SDS011;4779;48.062;11.672;2023-07-13T14:43:41;2.53;;;1.58;;
9481;SDS011;4779;48.062;11.672;2023-07-13T14:46:09;3.42;;;1.80;;
9481;SDS011;4779;48.062;11.672;2023-07-13T14:48:48;2.80;;;1.65;;
9481;SDS011;4779;48.062;11.672;2023-07-13T14:51:15;3.38;;;1.77;;
9481;SDS011;4779;48.062;11.672;2023-07-13T14:53:43;1.90;;;1.60;;
9481;SDS011;4779;48.062;11.672;2023-07-13T14:56:11;3.72;;;1.60;;
9481;SDS011;4779;48.062;11.672;2023-07-13T14:58:38;1.63;;;1.38;;
9481;SDS011;4779;48.062;11.672;2023-07-13T15:01:07;3.45;;;1.70;;
9481;SDS011;4779;48.062;11.672;2023-07-13T15:03:37;3.70;;;1.60;;
9481;SDS011;4779;48.062;11.672;2023-07-13T15:06:08;3.05;;;1.77;;
9481;SDS011;4779;48.062;11.672;2023-07-13T15:08:37;2.45;;;1.88;;
9481;SDS011;4779;48.062;11.672;2023-07-13T15:11:07;4.05;;;1.60;;
9481;SDS011;4779;48.062;11.672;2023-07-13T15:13:36;2.92;;;1.60;;
9481;SDS011;4779;48.062;11.672;2023-07-13T15:16:04;3.13;;;1.42;;
9481;SDS011;4779;48.062;11.672;2023-07-13T15:18:36;3.00;;;1.70;;